Time;durP1;ratioP1;P1;durP2;ratioP2;P2;SDS_P1;SDS_P2;PMS_P1;PMS_P2;Temp;Humidity;BMP_temperature;BMP_pressure;BME280_temperature;BME280_humidity;BME280_pressure;Samples;Min_cycle;Max_cycle;Signal;HPM_P1;HPM_P2
2021/05/24 00:01:30;;;;;;;8.88;4.45;;;;;;;15.36;45.61;99289.56;1798355;79;21147;-66
2021/05/24 00:03:57;;;;;;;9.38;4.25;;;;;;;15.34;48.13;99293.23;1804587;79;21545;-66
2021/05/24 00:06:24;;;;;;;7.55;3.60;;;;;;;15.31;47.32;99290.93;1785378;79;21070;-66
2021/05/24 00:08:53;;;;;;;5.87;3.83;;;;;;;15.29;46.62;99297.47;1805674;79;21017;-65
2021/05/24 00:11:21;;;;;;;7.58;3.47;;;;;;;15.26;46.32;99309.34;1777071;79;21030;-65
2021/05/24 00:13:55;;;;;;;10.23;4.15;;;;;;;15.22;46.11;99316.03;1803023;79;21050;-65
2021/05/24 00:16:20;;;;;;;7.25;3.58;;;;;;;15.18;45.80;99321.41;1809891;79;21521;-65
2021/05/24 00:18:51;;;;;;;5.92;3.60;;;;;;;15.13;45.83;99325.13;1807903;79;21069;-65
2021/05/24 00:21:19;;;;;;;8.83;3.50;;;;;;;15.08;45.93;99331.03;1785834;79;21042;-65
2021/05/24 00:23:47;;;;;;;10.13;3.52;;;;;;;15.04;46.28;99340.41;1779026;79;21579;-65
2021/05/24 00:26:15;;;;;;;9.03;3.80;;;;;;;14.99;46.42;99336.14;1806726;79;21124;-65
2021/05/24 00:28:41;;;;;;;12.47;4.30;;;;;;;14.96;46.92;99343.15;1808630;79;21065;-66
2021/05/24 00:31:10;;;;;;;5.92;3.52;;;;;;;14.93;47.54;99347.53;1783489;79;21088;-65
2021/05/24 00:33:37;;;;;;;9.55;4.60;;;;;;;14.89;48.37;99347.59;1802256;79;21101;-68
2021/05/24 00:36:04;;;;;;;9.78;4.00;;;;;;;14.86;49.30;99352.75;1790383;79;21510;-65
2021/05/24 00:38:31;;;;;;;4.30;3.52;;;;;;;14.83;49.95;99348.30;1793261;79;21544;-64
2021/05/24 00:40:57;;;;;;;7.30;4.22;;;;;;;14.80;50.49;99344.69;1803596;79;21025;-65
2021/05/24 00:43:24;;;;;;;6.40;3.40;;;;;;;14.78;50.33;99350.20;1777900;79;21120;-65
2021/05/24 00:45:51;;;;;;;7.92;3.58;;;;;;;14.75;50.28;99361.20;1772937;79;21093;-65
2021/05/24 00:48:18;;;;;;;7.15;3.65;;;;;;;14.74;51.47;99374.20;1777330;79;21615;-65
2021/05/24 00:50:46;;;;;;;7.47;3.92;;;;;;;14.71;51.86;99385.20;1779159;79;21038;-65
2021/05/24 00:53:13;;;;;;;5.60;3.50;;;;;;;14.66;53.28;99394.22;1776575;80;21061;-65
2021/05/24 00:55:39;;;;;;;6.47;3.98;;;;;;;14.60;54.80;99401.09;1779523;79;21117;-65
2021/05/24 00:58:06;;;;;;;6.25;3.87;;;;;;;14.50;56.63;99401.84;1782966;79;21084;-64
2021/05/24 01:00:44;;;;;;;5.55;3.70;;;;;;;14.40;58.74;99403.43;1783301;78;21037;-65
2021/05/24 01:03:12;;;;;;;4.40;3.52;;;;;;;14.28;60.06;99405.67;1782538;79;21025;-65
2021/05/24 01:05:40;;;;;;;5.90;4.08;;;;;;;14.18;61.19;99401.92;1795138;79;21129;-66
2021/05/24 01:08:09;;;;;;;6.45;3.50;;;;;;;14.10;62.29;99404.66;1809620;79;21038;-65
2021/05/24 01:10:36;;;;;;;8.58;4.17;;;;;;;14.05;63.48;99407.52;1798710;79;21554;-67
2021/05/24 01:13:05;;;;;;;5.22;3.55;;;;;;;13.98;64.26;99411.38;1808970;79;21068;-66
2021/05/24 01:15:34;;;;;;;6.83;3.62;;;;;;;13.94;65.59;99410.91;1799205;79;21068;-65
2021/05/24 01:18:01;;;;;;;8.23;3.72;;;;;;;13.92;66.66;99410.77;1788238;79;21592;-66
2021/05/24 01:20:28;;;;;;;5.17;3.60;;;;;;;13.90;67.78;99404.80;1799424;79;21033;-65
2021/05/24 01:23:17;;;;;;;9.95;4.03;;;;;;;13.87;67.92;99406.47;1800301;79;21100;-65
2021/05/24 01:25:27;;;;;;;5.03;3.47;;;;;;;13.84;68.53;99403.67;1800695;79;21026;-66
2021/05/24 01:27:53;;;;;;;5.17;3.58;;;;;;;13.85;69.03;99409.30;1801122;79;21112;-66
2021/05/24 01:30:21;;;;;;;5.95;3.98;;;;;;;13.85;70.83;99411.95;1806452;79;21525;-65
2021/05/24 01:32:50;;;;;;;5.10;3.72;;;;;;;13.84;72.56;99422.28;1809442;79;21085;-66
2021/05/24 01:35:18;;;;;;;7.10;4.08;;;;;;;13.83;73.66;99423.78;1786825;79;21704;-66
2021/05/24 01:37:44;;;;;;;8.33;3.85;;;;;;;13.82;75.02;99418.12;1806395;79;21552;-66
2021/05/24 01:40:13;;;;;;;4.50;3.22;;;;;;;13.82;74.89;99419.45;1774837;79;21077;-66
2021/05/24 01:42:40;;;;;;;7.30;3.92;;;;;;;13.86;73.02;99424.73;1803942;79;21094;-66
2021/05/24 01:45:08;;;;;;;5.92;3.62;;;;;;;13.91;72.88;99417.07;1797972;79;21018;-66
2021/05/24 01:47:35;;;;;;;6.80;3.70;;;;;;;13.92;75.27;99421.40;1789249;79;21014;-66
2021/05/24 01:50:02;;;;;;;4.12;2.72;;;;;;;13.92;76.43;99425.38;1790212;79;21063;-66
2021/05/24 01:52:28;;;;;;;6.22;3.10;;;;;;;13.89;74.19;99423.06;1779210;79;21084;-66
2021/05/24 01:54:55;;;;;;;3.90;3.20;;;;;;;13.89;74.22;99425.22;1801219;79;21097;-66
2021/05/24 01:57:21;;;;;;;6.05;3.10;;;;;;;13.91;75.00;99425.86;1790170;79;21548;-66
2021/05/24 01:59:49;;;;;;;5.83;2.77;;;;;;;13.88;74.07;99422.25;1792428;79;21046;-66
2021/05/24 02:02:16;;;;;;;5.87;3.00;;;;;;;13.87;74.65;99427.73;1807350;79;21049;-66
2021/05/24 02:04:43;;;;;;;5.00;2.90;;;;;;;13.86;74.93;99430.05;1785414;79;21066;-66
2021/05/24 02:07:09;;;;;;;5.97;2.90;;;;;;;13.89;77.06;99427.05;1801571;79;21054;-66
2021/05/24 02:09:38;;;;;;;4.03;3.20;;;;;;;13.88;78.12;99420.92;1793970;78;21034;-66
2021/05/24 02:12:07;;;;;;;5.30;2.95;;;;;;;13.86;78.81;99426.06;1808422;78;21116;-66
2021/05/24 02:14:34;;;;;;;4.92;3.08;;;;;;;13.81;77.58;99424.45;1795548;79;21073;-66
2021/05/24 02:17:01;;;;;;;4.00;2.80;;;;;;;13.78;77.63;99422.48;1794710;79;21049;-65
2021/05/24 02:19:27;;;;;;;3.47;2.70;;;;;;;13.76;78.92;99436.41;1756850;79;21548;-66
2021/05/24 02:21:56;;;;;;;6.90;2.90;;;;;;;13.74;78.89;99430.45;1799743;79;21077;-66
2021/05/24 02:24:23;;;;;;;6.97;3.35;;;;;;;13.73;80.18;99436.78;1784066;79;21042;-66
2021/05/24 02:26:49;;;;;;;4.25;2.60;;;;;;;13.74;81.09;99436.27;1805726;79;21645;-66
2021/05/24 02:29:16;;;;;;;5.67;2.90;;;;;;;13.77;82.71;99437.27;1806861;79;21042;-66
2021/05/24 02:31:42;;;;;;;4.10;2.85;;;;;;;13.77;83.88;99438.59;1785164;79;21577;-66
2021/05/24 02:34:09;;;;;;;6.20;2.80;;;;;;;13.78;84.51;99441.56;1793134;79;21177;-66
2021/05/24 02:36:36;;;;;;;4.50;2.58;;;;;;;13.77;82.58;99442.07;1799918;79;21076;-66
2021/05/24 02:39:08;;;;;;;4.53;2.90;;;;;;;13.78;80.90;99449.05;1803834;79;21026;-65
2021/05/24 02:41:36;;;;;;;3.77;2.27;;;;;;;13.79;81.66;99450.69;1808131;79;21006;-65
2021/05/24 02:44:04;;;;;;;3.58;2.40;;;;;;;13.77;79.08;99451.87;1808484;79;21048;-66
2021/05/24 02:46:31;;;;;;;2.55;2.20;;;;;;;13.75;79.87;99451.23;1783472;79;21029;-66
2021/05/24 02:48:58;;;;;;;2.10;1.90;;;;;;;13.76;78.52;99453.69;1781867;79;21066;-66
2021/05/24 02:51:25;;;;;;;3.47;2.40;;;;;;;13.79;77.89;99460.50;1780224;79;21591;-66
2021/05/24 02:53:51;;;;;;;5.40;2.40;;;;;;;13.75;79.30;99461.86;1807486;79;21711;-65
2021/05/24 02:56:18;;;;;;;3.33;2.27;;;;;;;13.71;81.15;99458.72;1804123;79;21053;-65
2021/05/24 02:58:45;;;;;;;2.60;2.40;;;;;;;13.67;82.54;99460.08;1807850;79;21010;-66
2021/05/24 03:01:11;;;;;;;2.87;1.80;;;;;;;13.63;83.61;99462.73;1807286;79;21565;-65
2021/05/24 03:03:40;;;;;;;5.42;2.08;;;;;;;13.59;83.74;99460.09;1784243;79;21533;-66
2021/05/24 03:06:07;;;;;;;2.62;2.02;;;;;;;13.51;83.97;99460.96;1808613;79;21010;-65
2021/05/24 03:08:33;;;;;;;2.98;1.67;;;;;;;13.39;85.47;99460.52;1780768;80;21580;-65
2021/05/24 03:11:00;;;;;;;4.22;2.10;;;;;;;13.31;86.29;99455.22;1797744;79;21046;-65
2021/05/24 03:13:27;;;;;;;2.25;1.72;;;;;;;13.23;86.36;99453.08;1800542;79;21021;-65
2021/05/24 03:15:55;;;;;;;4.08;2.12;;;;;;;13.18;87.09;99452.23;1781707;79;21038;-65
2021/05/24 03:18:22;;;;;;;6.30;1.75;;;;;;;13.17;88.10;99450.60;1802582;79;21616;-66
2021/05/24 03:20:49;;;;;;;6.83;2.05;;;;;;;13.17;88.50;99451.93;1802972;79;21033;-65
2021/05/24 03:23:16;;;;;;;2.52;1.77;;;;;;;13.15;89.51;99453.42;1778392;79;21074;-65
2021/05/24 03:25:43;;;;;;;2.87;2.25;;;;;;;13.11;90.65;99448.12;1790268;79;21141;-65
2021/05/24 03:28:10;;;;;;;4.55;2.30;;;;;;;13.06;91.93;99449.12;1805749;79;21089;-66
2021/05/24 03:30:37;;;;;;;4.75;2.42;;;;;;;13.04;92.79;99449.80;1802039;79;21025;-65
2021/05/24 03:33:04;;;;;;;6.72;2.10;;;;;;;13.01;93.60;99448.30;1804270;79;21101;-66
2021/05/24 03:35:31;;;;;;;3.90;2.40;;;;;;;12.99;94.75;99444.98;1787742;79;21034;-65
2021/05/24 03:37:59;;;;;;;4.10;2.50;;;;;;;13.00;95.93;99449.31;1783089;79;21037;-66
2021/05/24 03:40:26;;;;;;;4.42;3.17;;;;;;;12.99;96.89;99448.14;1790702;79;21041;-65
2021/05/24 03:42:53;;;;;;;5.95;2.92;;;;;;;13.00;97.42;99449.31;1808602;78;21066;-65
2021/05/24 03:45:22;;;;;;;8.83;2.80;;;;;;;13.01;97.63;99450.95;1794483;79;21093;-65
2021/05/24 03:47:51;;;;;;;5.33;2.60;;;;;;;13.00;98.32;99461.25;1808753;79;21053;-65
2021/05/24 03:50:17;;;;;;;5.83;3.05;;;;;;;13.03;99.36;99459.25;1795155;79;21041;-65
2021/05/24 03:52:44;;;;;;;5.47;3.27;;;;;;;13.05;99.64;99455.42;1782890;79;21049;-65
2021/05/24 03:55:14;;;;;;;5.92;3.00;;;;;;;13.05;100.00;99457.25;1791399;79;21546;-65
2021/05/24 03:57:40;;;;;;;6.87;3.47;;;;;;;13.07;100.00;99460.06;1787451;79;21620;-65
2021/05/24 04:00:10;;;;;;;7.58;3.33;;;;;;;13.08;99.58;99463.56;1806304;79;21065;-64
2021/05/24 04:02:39;;;;;;;6.75;3.55;;;;;;;13.07;99.47;99467.20;1783956;79;21058;-65
2021/05/24 04:07:41;;;;;;;6.45;3.60;;;;;;;13.10;99.33;99464.22;1780854;79;21057;-65
2021/05/24 04:10:11;;;;;;;4.50;3.10;;;;;;;13.10;99.74;99469.02;1805762;79;21081;-66
2021/05/24 04:12:38;;;;;;;3.98;3.33;;;;;;;13.10;100.00;99471.67;1805179;79;21056;-66
2021/05/24 04:15:07;;;;;;;6.53;3.50;;;;;;;13.09;100.00;99466.53;1785449;79;21545;-66
2021/05/24 04:17:37;;;;;;;7.65;3.35;;;;;;;13.09;100.00;99475.83;1804252;79;21041;-66
2021/05/24 04:20:06;;;;;;;6.20;3.67;;;;;;;13.11;100.00;99475.15;1806071;79;21069;-66
2021/05/24 04:22:32;;;;;;;6.83;3.55;;;;;;;13.12;100.00;99484.78;1779255;79;21553;-66
2021/05/24 04:24:59;;;;;;;5.50;3.17;;;;;;;13.13;100.00;99487.75;1790288;79;21026;-65
2021/05/24 04:27:26;;;;;;;7.15;3.20;;;;;;;13.14;100.00;99480.13;1795169;79;21037;-66
2021/05/24 04:29:52;;;;;;;6.97;2.90;;;;;;;13.15;99.85;99487.12;1779087;79;21025;-66
2021/05/24 04:32:19;;;;;;;4.35;2.70;;;;;;;13.12;99.47;99488.27;1799110;79;21069;-66
2021/05/24 04:34:46;;;;;;;6.60;3.42;;;;;;;13.13;99.52;99487.75;1804391;79;21097;-66
2021/05/24 04:37:13;;;;;;;5.62;2.92;;;;;;;13.14;99.39;99492.08;1789763;79;21033;-66
2021/05/24 04:39:43;;;;;;;4.40;2.67;;;;;;;13.14;99.22;99488.92;1803699;79;21081;-66
2021/05/24 04:42:09;;;;;;;4.08;3.02;;;;;;;13.13;99.08;99487.75;1779301;79;21030;-66
2021/05/24 04:44:36;;;;;;;4.72;3.08;;;;;;;13.09;98.64;99487.30;1785336;79;21120;-66
2021/05/24 04:47:05;;;;;;;5.92;2.30;;;;;;;13.05;98.62;99495.23;1785410;79;21045;-65
2021/05/24 04:49:33;;;;;;;2.83;2.52;;;;;;;13.07;98.49;99503.04;1798867;79;21070;-65
2021/05/24 04:52:00;;;;;;;6.20;2.58;;;;;;;13.06;98.53;99496.91;1790216;79;21062;-65
2021/05/24 04:54:27;;;;;;;5.05;2.62;;;;;;;13.05;98.22;99505.03;1791705;79;21058;-66
2021/05/24 04:56:54;;;;;;;4.42;2.90;;;;;;;13.01;97.92;99504.03;1780460;79;21596;-64
2021/05/24 04:59:22;;;;;;;5.08;2.75;;;;;;;12.99;97.63;99507.86;1796113;79;21061;-66
2021/05/24 05:01:48;;;;;;;3.65;2.52;;;;;;;12.94;97.45;99509.70;1779221;79;21129;-67
2021/05/24 05:04:18;;;;;;;5.83;2.42;;;;;;;12.95;97.79;99512.67;1806953;79;21133;-67
2021/05/24 05:06:45;;;;;;;2.92;2.35;;;;;;;12.96;97.11;99513.50;1809380;79;21038;-68
2021/05/24 05:09:12;;;;;;;3.55;2.20;;;;;;;12.94;96.76;99517.67;1788448;79;21070;-68
2021/05/24 05:11:39;;;;;;;5.35;3.37;;;;;;;12.92;96.51;99522.29;1795034;79;21085;-67
2021/05/24 05:14:06;;;;;;;5.95;2.33;;;;;;;12.87;96.21;99528.62;1794158;79;21578;-68
2021/05/24 05:16:33;;;;;;;5.50;2.45;;;;;;;12.86;96.66;99525.62;1780101;79;21046;-67
2021/05/24 05:19:00;;;;;;;7.00;2.08;;;;;;;12.87;96.71;99532.60;1795053;79;21030;-67
2021/05/24 05:21:26;;;;;;;5.15;2.42;;;;;;;12.89;96.56;99537.75;1803719;79;21038;-68
2021/05/24 05:23:54;;;;;;;4.75;2.55;;;;;;;12.89;97.19;99539.89;1794095;79;21600;-66
2021/05/24 05:26:20;;;;;;;3.65;2.45;;;;;;;12.92;96.91;99540.87;1800013;79;21121;-69
2021/05/24 05:28:49;;;;;;;2.58;2.02;;;;;;;12.92;96.89;99547.50;1798807;79;21174;-69
2021/05/24 05:31:15;;;;;;;6.08;2.62;;;;;;;12.94;96.83;99544.69;1777424;79;21561;-70
2021/05/24 05:33:42;;;;;;;6.10;2.17;;;;;;;12.97;96.74;99547.84;1791822;79;21692;-68
2021/05/24 05:36:09;;;;;;;4.10;2.60;;;;;;;13.03;97.41;99558.80;1819268;77;21534;-70
2021/05/24 05:38:36;;;;;;;2.83;2.42;;;;;;;13.08;97.75;99562.61;1813268;78;21020;-69
2021/05/24 05:41:05;;;;;;;2.85;2.60;;;;;;;13.13;97.18;99572.23;1827119;77;21024;-68
2021/05/24 05:43:31;;;;;;;3.00;2.10;;;;;;;13.15;97.02;99569.42;1815766;78;21570;-71
2021/05/24 05:45:59;;;;;;;4.53;2.17;;;;;;;13.20;96.66;99571.05;1791752;77;21050;-68
2021/05/24 05:48:26;;;;;;;4.47;2.35;;;;;;;13.23;95.56;99568.58;1814863;78;21565;-67
2021/05/24 05:50:53;;;;;;;4.42;1.85;;;;;;;13.24;95.88;99577.67;1808172;79;21074;-67
2021/05/24 05:53:20;;;;;;;3.60;2.15;;;;;;;13.27;96.83;99580.01;1809386;79;21019;-67
2021/05/24 05:55:46;;;;;;;4.12;2.17;;;;;;;13.28;96.21;99586.14;1785721;78;21148;-68
2021/05/24 05:58:13;;;;;;;2.27;2.08;;;;;;;13.27;96.04;99581.33;1815661;78;21072;-70
2021/05/24 06:00:39;;;;;;;2.27;2.02;;;;;;;13.27;94.45;99593.28;1834138;78;21123;-68
2021/05/24 06:03:06;;;;;;;2.37;1.92;;;;;;;13.29;94.17;99605.89;1824329;77;21033;-72
2021/05/24 06:05:33;;;;;;;2.90;2.33;;;;;;;13.30;94.33;99599.63;1841050;77;21032;-70
2021/05/24 06:08:00;;;;;;;3.72;2.00;;;;;;;13.32;93.85;99608.26;1817194;78;21106;-70
2021/05/24 06:10:27;;;;;;;4.20;2.37;;;;;;;13.32;93.81;99605.60;1778269;78;21020;-68
2021/05/24 06:12:54;;;;;;;6.70;2.02;;;;;;;13.34;94.18;99602.78;1807353;77;21040;-72
2021/05/24 06:15:21;;;;;;;2.55;1.70;;;;;;;13.32;93.15;99613.56;1818577;78;21520;-69
2021/05/24 06:17:48;;;;;;;2.33;1.80;;;;;;;13.28;93.28;99612.70;1824303;78;21124;-70
2021/05/24 06:20:16;;;;;;;2.75;1.87;;;;;;;13.24;92.01;99610.05;1820525;77;21574;-68
2021/05/24 06:22:43;;;;;;;1.95;1.70;;;;;;;13.22;91.41;99616.84;1829508;77;21172;-72
2021/05/24 06:25:11;;;;;;;2.15;1.55;;;;;;;13.23;91.69;99610.55;1827735;77;21028;-71
2021/05/24 06:27:39;;;;;;;2.92;1.75;;;;;;;13.27;91.89;99613.70;1820605;77;21067;-68
2021/05/24 06:30:08;;;;;;;7.30;1.62;;;;;;;13.31;91.36;99615.88;1794239;78;21070;-71
2021/05/24 06:32:35;;;;;;;2.90;1.67;;;;;;;13.42;91.38;99629.83;1823619;78;21590;-69
2021/05/24 06:35:03;;;;;;;3.83;1.80;;;;;;;13.47;90.52;99624.34;1821280;77;21131;-69
2021/05/24 06:37:29;;;;;;;2.33;1.80;;;;;;;13.47;90.69;99621.69;1834138;78;21040;-70
2021/05/24 06:39:56;;;;;;;3.40;1.65;;;;;;;13.52;90.78;99627.33;1815715;78;21518;-70
2021/05/24 06:42:24;;;;;;;3.77;1.67;;;;;;;13.61;89.37;99628.13;1787891;77;20991;-72
2021/05/24 06:44:52;;;;;;;1.75;1.20;;;;;;;13.69;88.83;99631.27;1824718;78;21055;-70
2021/05/24 06:47:19;;;;;;;2.33;1.32;;;;;;;13.77;87.28;99638.73;1807733;78;21118;-72
2021/05/24 06:49:46;;;;;;;3.15;1.50;;;;;;;13.88;87.65;99632.73;1807957;78;21087;-70
2021/05/24 06:52:13;;;;;;;2.20;1.50;;;;;;;14.00;86.61;99642.50;1807923;78;21150;-71
2021/05/24 06:54:39;;;;;;;2.22;1.90;;;;;;;14.13;86.56;99650.75;1813037;78;21037;-70
2021/05/24 06:57:07;;;;;;;2.27;1.55;;;;;;;14.25;85.95;99651.20;1792084;78;21023;-72
2021/05/24 06:59:35;;;;;;;3.58;1.12;;;;;;;14.34;83.98;99651.50;1800807;77;21119;-74
2021/05/24 07:02:02;;;;;;;4.35;1.52;;;;;;;14.46;81.65;99656.77;1813251;77;21050;-74
2021/05/24 07:04:29;;;;;;;1.85;1.52;;;;;;;14.55;81.00;99663.71;1823859;77;21054;-70
2021/05/24 07:06:56;;;;;;;6.05;2.08;;;;;;;14.65;81.03;99668.84;1829888;77;21179;-68
2021/05/24 07:09:24;;;;;;;5.30;1.70;;;;;;;14.77;81.62;99668.45;1801166;78;21008;-69
2021/05/24 07:11:51;;;;;;;2.45;1.42;;;;;;;14.87;81.73;99673.02;1830017;77;21207;-69
2021/05/24 07:14:18;;;;;;;1.67;1.27;;;;;;;14.95;81.28;99680.47;1812397;78;21087;-69
2021/05/24 07:16:44;;;;;;;2.62;1.20;;;;;;;15.11;79.90;99676.03;1830402;77;21061;-69
2021/05/24 07:19:12;;;;;;;1.42;1.10;;;;;;;15.24;78.28;99678.95;1805559;77;21106;-71
2021/05/24 07:21:39;;;;;;;2.17;1.40;;;;;;;15.33;77.40;99681.03;1820648;77;21555;-71
2021/05/24 07:24:08;;;;;;;1.65;1.20;;;;;;;15.44;76.69;99677.12;1815639;77;21052;-71
2021/05/24 07:26:35;;;;;;;1.60;1.35;;;;;;;15.53;75.28;99681.37;1813244;77;21035;-71
2021/05/24 07:29:03;;;;;;;3.05;1.50;;;;;;;15.65;75.20;99670.58;1821699;77;21134;-70
2021/05/24 07:31:30;;;;;;;4.25;2.35;;;;;;;15.78;74.12;99685.98;1807563;77;21050;-74
2021/05/24 07:33:57;;;;;;;1.52;1.35;;;;;;;15.94;73.82;99683.67;1824258;78;21096;-74
2021/05/24 07:36:23;;;;;;;3.30;1.42;;;;;;;16.15;73.28;99693.61;1780057;78;21140;-75
2021/05/24 07:38:50;;;;;;;2.00;1.50;;;;;;;16.31;71.57;99700.61;1699475;82;21159;-75
2021/05/24 07:41:18;;;;;;;1.40;1.07;;;;;;;16.50;70.65;99696.54;1781511;79;21591;-81
2021/05/24 07:43:44;;;;;;;2.30;1.22;;;;;;;16.74;70.24;99686.05;1797201;79;21079;-74
2021/05/24 07:46:12;;;;;;;1.70;1.30;;;;;;;17.00;69.24;99692.22;1786336;79;21064;-70
2021/05/24 07:48:39;;;;;;;1.42;1.20;;;;;;;17.25;68.48;99687.31;1765595;79;21040;-74
2021/05/24 07:51:05;;;;;;;1.60;1.30;;;;;;;17.58;68.16;99681.45;1773198;79;21068;-71
2021/05/24 07:53:32;;;;;;;2.60;1.42;;;;;;;17.78;65.74;99688.77;1792649;79;21055;-72
2021/05/24 07:55:59;;;;;;;1.22;1.15;;;;;;;17.97;65.81;99704.67;1763957;79;22008;-72
2021/05/24 07:58:26;;;;;;;1.30;1.20;;;;;;;18.26;64.58;99704.15;1781395;79;21088;-69
2021/05/24 08:00:54;;;;;;;3.30;1.30;;;;;;;18.59;65.48;99701.12;1778623;79;21062;-70
2021/05/24 08:03:21;;;;;;;2.77;1.35;;;;;;;18.93;63.32;99703.94;1781522;79;21562;-71
2021/05/24 08:05:49;;;;;;;3.37;1.22;;;;;;;19.22;62.29;99701.93;1770201;79;21167;-68
2021/05/24 08:08:16;;;;;;;2.05;1.30;;;;;;;19.54;60.80;99707.82;1804121;78;21141;-65
2021/05/24 08:10:43;;;;;;;1.17;1.07;;;;;;;19.84;59.56;99714.14;1831775;77;21119;-67
2021/05/24 08:13:11;;;;;;;1.85;1.10;;;;;;;20.14;59.23;99717.22;1773322;78;21067;-74
2021/05/24 08:15:41;;;;;;;2.00;1.80;;;;;;;20.30;56.67;99715.92;1812975;78;21047;-68
2021/05/24 08:18:10;;;;;;;4.42;1.95;;;;;;;20.30;58.04;99719.95;1817763;77;21039;-68
2021/05/24 08:20:37;;;;;;;4.10;1.67;;;;;;;20.62;58.18;99723.30;1790942;78;21024;-72
2021/05/24 08:23:05;;;;;;;3.95;1.47;;;;;;;20.93;57.02;99721.20;1835009;78;21197;-62
2021/05/24 08:25:32;;;;;;;2.27;1.30;;;;;;;21.03;54.95;99728.80;1800424;77;21043;-62
2021/05/24 08:27:59;;;;;;;2.10;1.10;;;;;;;20.88;54.45;99720.48;1813161;77;21912;-65
2021/05/24 08:30:26;;;;;;;3.55;1.20;;;;;;;20.66;53.51;99725.33;1785331;78;21048;-72
2021/05/24 08:32:52;;;;;;;2.10;1.30;;;;;;;20.28;53.08;99731.95;1804693;78;21165;-72
2021/05/24 08:35:19;;;;;;;4.20;1.40;;;;;;;19.85;54.48;99735.93;1768736;80;21707;-70
2021/05/24 08:37:46;;;;;;;1.37;1.27;;;;;;;19.52;55.37;99731.86;1728789;81;21094;-72
2021/05/24 08:40:15;;;;;;;1.95;1.45;;;;;;;19.19;56.33;99736.16;1740573;80;21068;-67
2021/05/24 08:42:44;;;;;;;2.75;1.40;;;;;;;18.96;56.20;99740.51;1754773;80;21021;-64
2021/05/24 08:45:13;;;;;;;3.30;1.45;;;;;;;18.65;57.98;99745.02;1790534;79;21107;-65
2021/05/24 08:47:40;;;;;;;1.05;0.90;;;;;;;18.54;59.08;99753.61;1782107;79;21094;-65
2021/05/24 08:50:08;;;;;;;2.30;1.32;;;;;;;18.23;60.62;99761.03;1807439;78;21066;-61
2021/05/24 08:52:34;;;;;;;3.20;1.50;;;;;;;18.23;60.62;99761.03;1813251;78;22472;-68
2021/05/24 08:55:01;;;;;;;2.08;1.20;;;;;;;18.14;61.86;99770.75;1795390;79;21087;-65
2021/05/24 08:57:28;;;;;;;2.62;1.32;;;;;;;17.98;62.34;99771.37;1798859;79;21562;-65
2021/05/24 08:59:55;;;;;;;3.58;1.32;;;;;;;17.88;61.90;99772.23;1834109;77;21048;-71
2021/05/24 09:02:21;;;;;;;2.55;1.50;;;;;;;17.76;61.77;99775.06;1810495;78;21082;-69
2021/05/24 09:04:49;;;;;;;1.02;0.93;;;;;;;17.65;62.75;99773.20;1811826;77;21102;-68
2021/05/24 09:07:17;;;;;;;1.50;1.17;;;;;;;17.60;62.37;99772.13;1798050;79;21051;-69
2021/05/24 09:10:06;;;;;;;1.67;1.20;;;;;;;17.59;63.78;99767.30;1784176;79;21099;-70
2021/05/24 09:12:33;;;;;;;3.22;1.20;;;;;;;17.76;63.72;99775.06;1793421;78;21074;-64
2021/05/24 09:15:07;;;;;;;1.50;0.80;;;;;;;17.98;63.32;99782.07;1739359;77;21056;-68
2021/05/24 09:17:55;;;;;;;2.10;1.32;;;;;;;18.20;61.47;99780.70;1830570;77;21029;-66
2021/05/24 09:20:32;;;;;;;1.98;1.25;;;;;;;18.57;60.39;99789.34;1830531;77;21111;-71
2021/05/24 09:23:23;;;;;;;2.60;1.00;;;;;;;19.38;61.27;99784.66;1804303;77;21029;-73
2021/05/24 09:26:03;;;;;;;1.72;1.20;;;;;;;20.44;59.19;99789.21;1797835;79;21052;-70
2021/05/24 09:28:41;;;;;;;1.57;1.35;;;;;;;21.29;54.66;99802.58;1811335;78;21044;-63
2021/05/24 09:31:21;;;;;;;1.35;1.25;;;;;;;22.12;53.90;99796.73;1764382;80;21085;-65
2021/05/24 09:33:54;;;;;;;2.05;1.40;;;;;;;22.67;52.14;99798.72;1738060;81;21151;-67
2021/05/24 09:36:22;;;;;;;2.35;1.47;;;;;;;23.11;48.78;99796.75;1741096;81;21080;-64
2021/05/24 09:38:57;;;;;;;2.65;1.30;;;;;;;23.38;48.03;99799.92;1743802;81;21083;-67
2021/05/24 09:41:24;;;;;;;1.52;1.30;;;;;;;23.61;46.92;99805.09;1749091;81;21126;-73
2021/05/24 09:43:54;;;;;;;1.47;1.07;;;;;;;24.06;44.41;99798.39;1745545;82;21087;-75
2021/05/24 09:46:26;;;;;;;3.52;1.40;;;;;;;24.22;44.02;99805.27;1744487;81;21080;-71
2021/05/24 09:48:56;;;;;;;1.15;1.02;;;;;;;24.27;42.95;99805.09;1737974;81;21119;-71
2021/05/24 09:51:25;;;;;;;3.22;1.22;;;;;;;24.54;42.28;99806.28;1729774;81;21068;-74
2021/05/24 09:54:09;;;;;;;2.10;1.30;;;;;;;25.06;41.30;99807.33;1738812;81;21163;-79
2021/05/24 09:56:40;;;;;;;2.08;1.00;;;;;;;25.68;40.06;99810.14;1718330;81;21028;-69
2021/05/24 09:59:10;;;;;;;2.10;1.25;;;;;;;25.99;38.87;99802.55;1715084;82;21064;-68
2021/05/24 10:01:47;;;;;;;1.77;1.12;;;;;;;26.45;38.62;99801.88;1740938;82;21665;-69
2021/05/24 10:04:15;;;;;;;3.33;1.35;;;;;;;26.90;37.12;99804.93;1748552;82;21115;-67
2021/05/24 10:06:42;;;;;;;3.00;1.40;;;;;;;27.19;36.53;99798.46;1745380;81;21068;-69
2021/05/24 10:09:11;;;;;;;3.30;1.77;;;;;;;27.63;35.78;99799.20;1746024;81;21148;-68
2021/05/24 10:11:47;;;;;;;1.72;1.40;;;;;;;27.85;36.17;99800.48;1744097;81;21041;-71
2021/05/24 10:14:15;;;;;;;4.35;1.12;;;;;;;27.93;34.75;99799.22;1745505;81;21023;-69
2021/05/24 10:16:47;;;;;;;3.08;1.35;;;;;;;27.93;33.39;99796.50;1748899;82;21044;-70
2021/05/24 10:19:17;;;;;;;3.58;1.45;;;;;;;27.85;32.49;99788.27;1737544;81;21060;-69
2021/05/24 10:21:49;;;;;;;2.40;1.37;;;;;;;27.68;32.23;99791.11;1740511;81;21067;-67
2021/05/24 10:24:20;;;;;;;2.50;1.50;;;;;;;27.68;33.23;99788.91;1744741;81;21047;-70
2021/05/24 10:26:47;;;;;;;1.50;1.25;;;;;;;27.98;33.48;99783.48;1750662;82;21143;-69
2021/05/24 10:29:14;;;;;;;1.82;1.30;;;;;;;28.30;32.30;99792.95;1743743;82;21154;-67
2021/05/24 10:31:42;;;;;;;1.20;1.10;;;;;;;28.43;32.16;99798.44;1723881;82;21055;-67
2021/05/24 10:34:22;;;;;;;4.72;1.25;;;;;;;28.24;32.02;99802.98;1722728;82;21072;-70
2021/05/24 10:37:14;;;;;;;6.87;1.77;;;;;;;27.79;32.23;99805.58;1748247;82;21567;-69
2021/05/24 10:39:50;;;;;;;2.42;1.40;;;;;;;27.49;32.44;99800.70;1754483;81;21040;-67
2021/05/24 10:42:17;;;;;;;1.75;1.00;;;;;;;27.25;32.58;99801.02;1796959;79;21005;-68
2021/05/24 10:44:46;;;;;;;3.72;1.35;;;;;;;27.06;32.45;99805.10;1794028;79;21044;-67
2021/05/24 10:47:24;;;;;;;1.47;0.90;;;;;;;26.80;32.85;99801.27;1764477;80;21090;-70
2021/05/24 10:50:05;;;;;;;3.12;0.93;;;;;;;26.74;32.70;99797.67;1796056;79;21076;-68
2021/05/24 10:52:40;;;;;;;2.22;0.93;;;;;;;26.63;32.45;99805.39;1778998;79;21086;-70
2021/05/24 10:55:42;;;;;;;1.98;1.12;;;;;;;26.53;32.59;99801.98;1791072;79;21051;-69
2021/05/24 10:58:14;;;;;;;1.40;1.00;;;;;;;26.34;33.18;99804.16;1724764;80;21072;-69
2021/05/24 11:01:01;;;;;;;3.45;1.30;;;;;;;26.03;33.89;99811.00;1748244;80;21403;-68
2021/05/24 11:03:29;;;;;;;3.15;1.02;;;;;;;25.67;34.44;99815.80;1815600;77;22194;-67
2021/05/24 11:06:15;;;;;;;1.52;0.88;;;;;;;25.58;34.65;99823.48;1773958;77;21641;-66
2021/05/24 11:09:02;;;;;;;3.77;1.45;;;;;;;25.69;35.97;99815.83;1755020;80;21438;-69
2021/05/24 11:11:34;;;;;;;2.45;1.37;;;;;;;26.01;35.35;99819.91;1789034;79;21119;-68
2021/05/24 11:14:04;;;;;;;4.50;1.40;;;;;;;26.13;34.82;99816.05;1797313;79;21056;-65
2021/05/24 11:16:33;;;;;;;2.83;1.10;;;;;;;26.19;34.42;99801.23;1754646;79;22038;-66
2021/05/24 11:19:10;;;;;;;5.22;1.47;;;;;;;26.19;35.32;99801.23;1798791;79;21682;-69
2021/05/24 11:21:42;;;;;;;2.35;1.05;;;;;;;26.13;35.67;99801.69;1791507;80;21056;-66
2021/05/24 11:27:14;;;;;;;1.75;1.20;;;;;;;26.15;34.61;99815.27;1785198;80;21056;-68
2021/05/24 11:29:43;;;;;;;1.35;1.10;;;;;;;26.12;34.77;99818.46;1783211;80;21048;-68
2021/05/24 11:32:27;;;;;;;1.65;1.37;;;;;;;26.24;34.42;99813.48;1794723;79;21073;-67
2021/05/24 11:34:55;;;;;;;1.67;1.30;;;;;;;26.24;33.90;99817.55;1798035;79;21080;-69
2021/05/24 11:37:43;;;;;;;2.40;1.32;;;;;;;26.05;34.22;99812.38;1788595;79;22357;-68
2021/05/24 11:40:16;;;;;;;2.12;1.27;;;;;;;25.85;34.28;99826.41;1783884;80;21102;-69
2021/05/24 11:42:43;;;;;;;2.27;0.98;;;;;;;25.46;34.66;99831.67;1793964;77;21072;-70
2021/05/24 11:45:21;;;;;;;1.95;1.10;;;;;;;25.13;35.25;99826.95;1775164;78;21065;-66
2021/05/24 11:47:58;;;;;;;4.62;1.10;;;;;;;24.95;35.85;99834.19;1777538;79;21971;-63